createdAt,value
2018-12-18T06:06:41.958Z,2.20
2018-12-18T06:09:09.408Z,2.10
2018-12-18T06:11:36.857Z,2.20
2018-12-18T06:14:04.303Z,2.10
2018-12-18T06:16:31.750Z,2.10
2018-12-18T06:18:59.362Z,2.00
2018-12-18T06:21:26.907Z,2.00
2018-12-18T06:23:54.333Z,2.00
2018-12-18T06:26:21.805Z,1.90
2018-12-18T06:28:49.255Z,2.00
2018-12-18T06:31:16.732Z,2.00
2018-12-18T06:33:44.711Z,2.10
2018-12-18T06:36:12.454Z,2.20
2018-12-18T06:38:40.096Z,2.10
2018-12-18T06:41:07.605Z,2.10
2018-12-18T06:43:35.029Z,2.00
2018-12-18T06:46:02.749Z,2.10
2018-12-18T06:48:30.208Z,2.20
2018-12-18T06:50:57.839Z,2.20
2018-12-18T06:53:25.705Z,2.10
2018-12-18T06:55:53.162Z,2.10
2018-12-18T06:58:20.617Z,2.10
2018-12-18T07:00:48.123Z,2.20
2018-12-18T07:03:15.577Z,2.10
2018-12-18T07:05:43.613Z,2.10
2018-12-18T07:08:11.329Z,2.20
2018-12-18T07:10:38.791Z,2.20
2018-12-18T07:13:06.223Z,2.20
2018-12-18T07:15:33.890Z,2.30
2018-12-18T07:18:01.321Z,2.30
2018-12-18T07:20:28.882Z,2.20
2018-12-18T07:22:56.367Z,2.30
2018-12-18T07:25:23.813Z,2.20
2018-12-18T07:27:51.314Z,2.10
2018-12-18T07:30:18.795Z,2.20
2018-12-18T07:32:46.557Z,2.30
2018-12-18T07:35:14.670Z,2.40
2018-12-18T07:37:42.164Z,2.50
2018-12-18T07:40:09.677Z,2.60
2018-12-18T07:42:37.149Z,2.50
2018-12-18T07:45:04.991Z,2.40
2018-12-18T07:47:32.601Z,2.50
2018-12-18T07:50:00.214Z,2.50
2018-12-18T07:52:27.662Z,2.50
2018-12-18T07:54:55.111Z,2.50
2018-12-18T07:57:22.794Z,2.40
2018-12-18T07:59:50.413Z,2.30
2018-12-18T08:02:18.174Z,2.30
2018-12-18T08:04:46.191Z,2.30
2018-12-18T08:07:13.856Z,2.30
2018-12-18T08:09:41.308Z,2.30
2018-12-18T08:12:08.785Z,2.30
2018-12-18T08:14:36.937Z,2.40
2018-12-18T08:17:04.403Z,2.40
2018-12-18T08:19:32.301Z,2.30
2018-12-18T08:21:59.738Z,2.40
2018-12-18T08:24:27.173Z,2.50
2018-12-18T08:26:54.668Z,2.50
2018-12-18T08:29:22.106Z,2.60
2018-12-18T08:31:49.948Z,2.60
2018-12-18T08:34:17.393Z,2.50
2018-12-18T08:36:45.400Z,2.70
2018-12-18T08:39:13.177Z,2.70
2018-12-18T08:41:40.657Z,2.70
2018-12-18T08:44:08.153Z,2.80
2018-12-18T08:46:35.629Z,2.80
2018-12-18T08:49:03.373Z,2.70
2018-12-18T08:51:31.235Z,2.60
2018-12-18T08:53:58.773Z,2.50
2018-12-18T08:56:27.433Z,2.50
2018-12-18T08:58:54.913Z,2.50
2018-12-18T09:01:22.369Z,2.60
2018-12-18T09:03:50.074Z,2.70
2018-12-18T09:06:17.841Z,2.70
2018-12-18T09:08:45.344Z,2.80
2018-12-18T09:11:13.067Z,2.80
2018-12-18T09:13:40.512Z,2.90
2018-12-18T09:19:08.811Z,2.90
2018-12-18T09:21:36.338Z,2.90
2018-12-18T09:24:03.820Z,2.80
2018-12-18T09:26:31.567Z,2.80
2018-12-18T09:28:59.109Z,2.80
2018-12-18T09:31:26.557Z,2.80
2018-12-18T09:33:54.472Z,2.90
2018-12-18T09:36:22.550Z,2.90
2018-12-18T09:42:01.585Z,2.90
2018-12-18T09:44:29.353Z,3.10
2018-12-18T09:46:56.865Z,3.00
2018-12-18T09:49:24.369Z,2.90
2018-12-18T09:51:52.097Z,2.90
2018-12-18T09:54:19.553Z,3.00
2018-12-18T09:56:49.894Z,3.00
2018-12-18T09:59:17.401Z,3.10
2018-12-18T10:01:44.918Z,3.00
2018-12-18T10:04:12.576Z,3.20
2018-12-18T10:06:40.329Z,3.30
2018-12-18T10:09:09.806Z,3.00
2018-12-18T10:11:37.343Z,3.00
2018-12-18T10:14:04.951Z,3.20
2018-12-18T10:16:32.918Z,3.30
2018-12-18T10:19:01.073Z,3.30
2018-12-18T10:21:28.567Z,3.50
2018-12-18T10:23:56.020Z,3.60
2018-12-18T10:26:23.912Z,3.60
2018-12-18T10:28:51.353Z,3.60
2018-12-18T10:31:18.794Z,3.70
2018-12-18T10:33:46.717Z,3.90
2018-12-18T10:36:14.434Z,4.10
2018-12-18T10:38:41.871Z,4.30
2018-12-18T10:41:09.425Z,4.20
2018-12-18T10:43:36.874Z,4.00
2018-12-18T10:46:04.417Z,3.90
2018-12-18T10:48:31.903Z,4.10
2018-12-18T10:51:00.140Z,4.20
2018-12-18T10:53:27.682Z,4.00
2018-12-18T10:55:55.128Z,3.90
2018-12-18T10:58:24.176Z,3.90
2018-12-18T11:00:58.141Z,3.70
2018-12-18T11:03:25.583Z,3.60
2018-12-18T11:05:53.296Z,3.60
2018-12-18T11:08:20.741Z,3.50
2018-12-18T11:10:48.189Z,3.60
2018-12-18T11:13:17.096Z,3.70
2018-12-18T11:15:45.150Z,3.70
2018-12-18T11:18:12.637Z,3.70
2018-12-18T11:20:40.326Z,3.70
2018-12-18T11:23:07.822Z,3.70
2018-12-18T11:25:35.290Z,3.70
2018-12-18T11:28:02.870Z,3.60
2018-12-18T11:30:30.416Z,3.50
2018-12-18T11:32:58.113Z,3.60
2018-12-18T11:35:25.939Z,3.60
2018-12-18T11:37:53.389Z,3.70
2018-12-18T11:40:21.285Z,3.80
2018-12-18T11:42:48.739Z,3.80
2018-12-18T11:45:16.582Z,3.80
2018-12-18T11:47:44.038Z,3.70
2018-12-18T11:50:11.779Z,3.60
2018-12-18T11:52:39.389Z,3.70
2018-12-18T11:55:06.905Z,3.70
2018-12-18T11:57:34.373Z,3.60
2018-12-18T12:00:01.823Z,3.60
2018-12-18T12:02:29.302Z,3.60
2018-12-18T12:04:56.860Z,3.50
2018-12-18T12:07:24.725Z,3.40
2018-12-18T12:09:52.474Z,3.50
2018-12-18T12:12:19.932Z,3.40
2018-12-18T12:14:47.625Z,3.40
2018-12-18T12:17:15.319Z,3.40
2018-12-18T12:19:42.937Z,3.40
2018-12-18T12:22:10.381Z,3.30
2018-12-18T12:24:37.849Z,3.30
2018-12-18T12:27:10.880Z,3.30
2018-12-18T12:29:38.325Z,3.30
2018-12-18T12:32:06.275Z,3.10
2018-12-18T12:34:33.877Z,3.20
2018-12-18T12:37:01.322Z,3.00
2018-12-18T12:39:28.766Z,3.00
2018-12-18T12:41:56.498Z,3.10
2018-12-18T12:44:23.955Z,3.10
2018-12-18T12:46:51.403Z,3.10
2018-12-18T12:49:18.870Z,3.10
2018-12-18T12:51:46.541Z,3.10
2018-12-18T12:54:13.981Z,3.10
2018-12-18T12:56:41.430Z,3.20
2018-12-18T12:59:09.029Z,3.10
2018-12-18T13:01:41.971Z,3.20
2018-12-18T13:04:06.236Z,3.20
2018-12-18T13:06:36.569Z,3.10
2018-12-18T13:09:05.881Z,3.20
2018-12-18T13:11:33.333Z,3.20
2018-12-18T13:14:00.802Z,3.20
2018-12-18T13:16:28.245Z,3.30
2018-12-18T13:18:55.938Z,3.30
2018-12-18T13:21:23.483Z,3.30
2018-12-18T13:23:51.368Z,3.30
2018-12-18T13:26:18.819Z,3.30
2018-12-18T13:28:46.321Z,3.30
2018-12-18T13:31:13.815Z,3.20
2018-12-18T13:33:41.489Z,3.30
2018-12-18T13:36:09.340Z,3.20
2018-12-18T13:38:36.786Z,3.20
2018-12-18T13:41:04.468Z,3.10
2018-12-18T13:43:31.961Z,3.00
2018-12-18T13:45:59.417Z,3.10
2018-12-18T13:48:27.087Z,3.00
2018-12-18T13:50:54.817Z,2.90
2018-12-18T13:53:22.414Z,3.00
2018-12-18T13:55:49.865Z,3.00
2018-12-18T13:58:17.310Z,3.00
2018-12-18T14:00:45.023Z,3.00
2018-12-18T14:03:12.514Z,3.10
2018-12-18T14:08:09.758Z,3.10
2018-12-18T14:10:37.207Z,3.10
2018-12-18T14:13:04.725Z,3.00
2018-12-18T14:15:32.186Z,2.90
2018-12-18T14:17:59.687Z,2.90
2018-12-18T14:20:27.403Z,2.90
2018-12-18T14:22:54.853Z,2.90
2018-12-18T14:25:22.286Z,2.90
2018-12-18T14:27:49.775Z,2.90
2018-12-18T14:30:17.225Z,2.90
2018-12-18T14:32:45.161Z,2.90
2018-12-18T14:35:13.109Z,2.90
2018-12-18T14:37:40.602Z,2.90
2018-12-18T14:40:08.046Z,2.90
2018-12-18T14:42:35.552Z,2.90
2018-12-18T14:45:03.710Z,2.90
2018-12-18T14:47:31.173Z,2.80
2018-12-18T14:49:58.943Z,2.90
2018-12-18T14:52:26.395Z,2.90
2018-12-18T14:54:53.897Z,2.90
2018-12-18T14:57:21.346Z,2.80
2018-12-18T14:59:48.817Z,2.80
2018-12-18T15:02:16.285Z,2.80
2018-12-18T15:04:44.690Z,2.80
2018-12-18T15:07:12.477Z,2.80
2018-12-18T15:09:39.926Z,2.80
2018-12-18T15:12:07.413Z,2.90
2018-12-18T15:14:34.865Z,2.90
2018-12-18T15:17:02.364Z,2.80
2018-12-18T15:19:30.046Z,2.80
2018-12-18T15:21:57.557Z,2.90
2018-12-18T15:24:25.001Z,2.80
2018-12-18T15:26:52.457Z,2.90
2018-12-18T15:29:19.930Z,2.80
2018-12-18T15:31:47.681Z,2.90
2018-12-18T15:34:15.123Z,2.80
2018-12-18T15:36:43.202Z,2.80
2018-12-18T15:39:10.649Z,2.80
2018-12-18T15:41:38.265Z,2.80
2018-12-18T15:44:06.080Z,2.90
2018-12-18T15:46:33.579Z,2.90
2018-12-18T15:49:01.021Z,2.90
2018-12-18T15:51:28.663Z,2.90
2018-12-18T15:53:56.121Z,2.90
2018-12-18T15:56:23.570Z,2.90
2018-12-18T15:58:51.030Z,2.90
2018-12-18T16:01:19.057Z,2.90
2018-12-18T16:03:46.515Z,2.90
2018-12-18T16:06:14.397Z,2.90
2018-12-18T16:08:41.948Z,3.00
2018-12-18T16:11:09.438Z,2.90
2018-12-18T16:13:37.216Z,2.90
2018-12-18T16:16:04.697Z,2.90
2018-12-18T16:18:33.802Z,3.00
2018-12-18T16:21:01.618Z,3.00
2018-12-18T16:23:29.137Z,3.00
2018-12-18T16:25:56.585Z,3.00
2018-12-18T16:28:24.245Z,3.10
2018-12-18T16:30:51.737Z,3.10
2018-12-18T16:33:19.490Z,3.00
2018-12-18T16:35:47.496Z,3.00
2018-12-18T16:38:15.003Z,2.90
2018-12-18T16:40:43.728Z,2.90
2018-12-18T16:43:11.845Z,3.00
2018-12-18T16:45:39.309Z,2.90
2018-12-18T16:48:06.764Z,2.90
2018-12-18T16:50:34.882Z,2.90
2018-12-18T16:53:02.479Z,2.90
2018-12-18T16:55:29.931Z,2.90
2018-12-18T16:57:57.435Z,2.80
2018-12-18T17:00:24.929Z,2.80
2018-12-18T17:02:52.702Z,2.80
2018-12-18T17:05:20.463Z,2.80
2018-12-18T17:07:47.894Z,2.90
2018-12-18T17:10:15.348Z,2.80
2018-12-18T17:12:44.745Z,2.80
2018-12-18T17:15:12.517Z,2.80
2018-12-18T17:17:39.966Z,2.90
2018-12-18T17:20:07.687Z,2.80
2018-12-18T17:22:35.146Z,2.80
2018-12-18T17:25:02.725Z,2.80
2018-12-18T17:27:30.648Z,2.80
2018-12-18T17:29:58.390Z,2.80
2018-12-18T17:32:26.349Z,2.70
2018-12-18T17:34:53.964Z,2.60
2018-12-18T17:37:21.431Z,2.60
2018-12-18T17:39:48.898Z,2.70
2018-12-18T17:42:16.369Z,2.60
2018-12-18T17:44:43.826Z,2.50
2018-12-18T17:47:12.292Z,2.50
2018-12-18T17:49:40.182Z,2.40
2018-12-18T17:52:07.638Z,2.50
2018-12-18T17:54:35.097Z,2.50
2018-12-18T17:57:02.559Z,2.50
2018-12-18T17:59:30.012Z,2.40
2018-12-18T18:01:57.909Z,2.40
2018-12-18T18:04:25.494Z,2.40
2018-12-18T18:06:53.205Z,2.40
2018-12-18T18:09:20.653Z,2.40
2018-12-18T18:11:48.097Z,2.30
2018-12-18T18:14:15.617Z,2.30
2018-12-18T18:16:43.074Z,2.30
2018-12-18T18:19:10.882Z,2.30
2018-12-18T18:21:38.393Z,2.30
2018-12-18T18:24:05.854Z,2.20
2018-12-18T18:26:34.162Z,2.20
2018-12-18T18:29:01.893Z,2.30
2018-12-18T18:31:29.625Z,2.30
2018-12-18T18:33:57.366Z,2.20
2018-12-18T18:36:25.037Z,2.30
2018-12-18T18:38:52.488Z,2.30
2018-12-18T18:41:20.200Z,2.30
2018-12-18T18:43:47.657Z,2.20
2018-12-18T18:46:15.145Z,2.10
2018-12-18T18:48:42.614Z,2.20
2018-12-18T18:51:10.292Z,2.20
2018-12-18T18:53:37.746Z,2.20
2018-12-18T18:56:05.221Z,2.10
2018-12-18T18:58:32.701Z,2.20
2018-12-18T19:01:00.182Z,2.20
2018-12-18T19:03:27.637Z,2.20
2018-12-18T19:05:55.503Z,2.10
2018-12-18T19:08:22.993Z,2.00
2018-12-18T19:10:50.438Z,2.00
2018-12-18T19:13:17.901Z,1.90
2018-12-18T19:15:45.892Z,1.90
2018-12-18T19:18:13.354Z,1.90
2018-12-18T19:20:40.908Z,1.90
2018-12-18T19:23:08.345Z,1.80
2018-12-18T19:25:35.821Z,1.70
2018-12-18T19:28:03.485Z,1.80
2018-12-18T19:30:31.369Z,1.80
2018-12-18T19:32:58.994Z,1.70
2018-12-18T19:35:26.743Z,1.70
2018-12-18T19:37:54.526Z,1.70
2018-12-18T19:40:22.017Z,1.70
2018-12-18T19:42:49.489Z,1.70
2018-12-18T19:45:17.284Z,1.60
2018-12-18T19:47:44.744Z,1.70
2018-12-18T19:50:12.547Z,1.60
2018-12-18T19:52:40.008Z,1.60
2018-12-18T19:55:07.530Z,1.60
2018-12-18T19:57:34.986Z,1.60
2018-12-18T20:00:03.613Z,1.70
2018-12-18T20:02:31.406Z,1.70
2018-12-18T20:04:59.392Z,1.60
2018-12-18T20:07:27.213Z,1.50
2018-12-18T20:09:54.785Z,1.50
2018-12-18T20:12:22.226Z,1.60
2018-12-18T20:14:49.956Z,1.50
2018-12-18T20:17:17.555Z,1.50
2018-12-18T20:22:16.506Z,1.50
2018-12-18T20:24:44.236Z,1.60
2018-12-18T20:27:11.701Z,1.70
2018-12-18T20:29:39.940Z,1.70
2018-12-18T20:32:07.682Z,1.60
2018-12-18T20:34:35.789Z,1.70
2018-12-18T20:37:03.353Z,1.70
2018-12-18T20:39:32.039Z,1.70
2018-12-18T20:41:59.513Z,1.60
2018-12-18T20:44:27.048Z,1.60
2018-12-18T20:46:54.519Z,1.70
2018-12-18T20:49:22.033Z,1.70
2018-12-18T20:51:49.792Z,1.70
2018-12-18T20:54:17.298Z,1.60
2018-12-18T20:56:44.817Z,1.70
2018-12-18T20:59:12.271Z,1.70
2018-12-18T21:01:40.211Z,1.80
2018-12-18T21:04:08.174Z,1.70
2018-12-18T21:06:35.939Z,1.70
2018-12-18T21:09:06.002Z,1.70
2018-12-18T21:11:33.445Z,1.70
2018-12-18T21:14:01.069Z,1.60
2018-12-18T21:16:28.529Z,1.60
2018-12-18T21:18:56.423Z,1.60
2018-12-18T21:21:24.057Z,1.70
2018-12-18T21:23:51.518Z,1.60
2018-12-18T21:26:18.948Z,1.60
2018-12-18T21:28:46.698Z,1.60
2018-12-18T21:31:14.481Z,1.60
2018-12-18T21:33:42.284Z,1.50
2018-12-18T21:36:10.141Z,1.50
2018-12-18T21:38:37.640Z,1.50
2018-12-18T21:41:05.076Z,1.50
2018-12-18T21:43:32.538Z,1.50
2018-12-18T21:45:59.999Z,1.60
2018-12-18T21:48:27.540Z,1.60
2018-12-18T21:50:55.281Z,1.50
2018-12-18T21:53:22.723Z,1.60
2018-12-18T21:55:50.196Z,1.70
2018-12-18T21:58:17.645Z,1.70
2018-12-18T22:00:45.184Z,1.70
2018-12-18T22:03:12.729Z,1.70
2018-12-18T22:05:40.658Z,1.60
2018-12-18T22:08:08.097Z,1.70
2018-12-18T22:10:35.556Z,1.70
2018-12-18T22:13:03.031Z,1.70
2018-12-18T22:15:30.464Z,1.60
2018-12-18T22:17:57.918Z,1.60
2018-12-18T22:20:25.744Z,1.60
2018-12-18T22:22:53.197Z,1.70
2018-12-18T22:25:20.650Z,1.70
2018-12-18T22:27:48.452Z,1.80
2018-12-18T22:30:15.990Z,1.80
2018-12-18T22:32:43.876Z,1.70
2018-12-18T22:35:11.532Z,1.60
2018-12-18T22:37:38.994Z,1.60
2018-12-18T22:40:07.008Z,1.60
2018-12-18T22:42:34.729Z,1.60
2018-12-18T22:45:02.213Z,1.60
2018-12-18T22:47:33.832Z,1.40
2018-12-18T22:50:02.896Z,1.30
2018-12-18T22:52:33.491Z,1.30
2018-12-18T22:55:02.558Z,1.40
2018-12-18T22:57:30.227Z,1.50
2018-12-18T22:59:57.690Z,1.30
2018-12-18T23:02:25.522Z,1.20
2018-12-18T23:04:54.014Z,1.30
2018-12-18T23:07:22.185Z,1.20
2018-12-18T23:09:49.912Z,1.10
2018-12-18T23:12:17.431Z,1.20
2018-12-18T23:14:44.896Z,1.20
2018-12-18T23:17:12.385Z,1.10
2018-12-18T23:19:40.062Z,1.10
2018-12-18T23:22:07.555Z,1.20
2018-12-18T23:24:35.002Z,1.00
2018-12-18T23:27:02.480Z,0.90
2018-12-18T23:29:30.182Z,0.90
2018-12-18T23:31:57.997Z,0.80
2018-12-18T23:34:25.534Z,0.80
2018-12-18T23:36:53.151Z,0.90
2018-12-18T23:39:20.805Z,0.90
2018-12-18T23:41:48.397Z,0.90
2018-12-18T23:44:16.033Z,0.90
2018-12-18T23:46:43.467Z,0.80
2018-12-18T23:49:10.918Z,0.80
2018-12-18T23:51:38.742Z,0.70
2018-12-18T23:54:06.221Z,0.60
2018-12-18T23:56:33.665Z,0.70
2018-12-18T23:59:01.403Z,0.60
